Pagina principală
METAR-TAF:

METAR-TAF

Aeroporturi :

São José do Rio Preto, São Paulo, Brazilia

Latitudine: 20-48-58S, longitudine: 049-24-17W, elevație: 543 m

Observații meteo curente

Raportul a fost făcut în urmă cu 56 de minute, la 15:00 UTC
Vânt 8 kt de la Vest/Sud-vest
Temperatură 16°C
Umiditate 77%
Presiune 1023 hPa
Vizibilitate de 10 km sau mai mult
Nori fragmentați la o înălțime de 1000 picior
Total acoperit la o înălțime de 7000 picior

METAR: SBSR 281500Z 25008KT 9999 BKN010 OVC070 16/12 Q1023

Ora: 12:56 (15:56 UTC)


TAF: lipsă

Observații și prognoze meteo pentru peste 4.000 de aeroporturi (rapoarte METAR și TAF).

Stațiile disponibile sunt reprezentate pe hartă prin puncte galbene și roșii.

Țineți indicatorul mouse-ului pe punctul dorit pentru a vedea denumirea stației.

Apoi, faceți clic pentru a vedea observațiile și prognozele meteorologice.

Pentru a schimba harta: Pentru mărire, faceți clic pe butoanele verzi cu cruce neagră; pentru micșorare, pe butonul verde cu o liniuță; pentru hărți învecinate, pe săgețile verzi.


METAR-TAF: